Time;durP1;ratioP1;P1;durP2;ratioP2;P2;SDS_P1;SDS_P2;PMS_P1;PMS_P2;Temp;Humidity;BMP_temperature;BMP_pressure;BME280_temperature;BME280_humidity;BME280_pressure;Samples;Min_cycle;Max_cycle;Signal;HPM_P1;HPM_P2
2021/12/12 00:00:33;;;;;;;13.68;5.00;;;;;;;23.20;48.64;100069.81;7305785;19;129924;-38
2021/12/12 00:03:10;;;;;;;18.77;5.72;;;;;;;23.31;48.98;100071.50;7308031;19;129420;-34
2021/12/12 00:05:46;;;;;;;20.15;5.40;;;;;;;23.38;48.37;100069.97;7304158;19;130210;-32
2021/12/12 00:08:13;;;;;;;16.67;5.25;;;;;;;23.44;47.80;100072.88;7308993;19;130624;-35
2021/12/12 00:10:41;;;;;;;21.85;5.93;;;;;;;23.55;47.90;100070.06;7307399;19;130475;-34
2021/12/12 00:13:11;;;;;;;12.80;4.28;;;;;;;23.63;48.20;100078.09;7307653;19;129928;-34
2021/12/12 00:15:37;;;;;;;15.82;4.85;;;;;;;23.74;47.25;100070.06;7305199;19;129284;-35
2021/12/12 00:18:03;;;;;;;20.67;6.00;;;;;;;23.81;47.40;100075.56;7307917;19;130240;-34
2021/12/12 00:20:31;;;;;;;14.70;4.43;;;;;;;23.93;46.97;100077.06;7307817;19;131432;-35
2021/12/12 00:22:59;;;;;;;25.10;6.32;;;;;;;24.01;47.38;100078.03;7307857;19;129430;-36
2021/12/12 00:25:31;;;;;;;16.83;5.05;;;;;;;24.12;46.32;100074.38;7302773;19;129513;-35
2021/12/12 00:27:57;;;;;;;21.20;5.65;;;;;;;24.19;46.50;100065.78;7308546;19;133747;-30
2021/12/12 00:30:24;;;;;;;22.50;6.03;;;;;;;24.26;45.72;100072.09;7306872;19;129585;-34
2021/12/12 00:32:51;;;;;;;17.27;4.70;;;;;;;24.35;45.98;100071.25;7306606;19;129533;-37
2021/12/12 00:35:17;;;;;;;23.15;5.55;;;;;;;24.34;45.94;100082.75;7302904;19;129202;-38
2021/12/12 00:37:44;;;;;;;14.38;4.50;;;;;;;24.30;46.02;100077.91;7308813;19;129369;-32
2021/12/12 00:40:33;;;;;;;15.30;4.35;;;;;;;24.18;46.10;100076.44;7308377;19;130431;-34
2021/12/12 00:43:04;;;;;;;24.15;5.80;;;;;;;24.13;46.61;100071.59;7308686;19;129185;-34
2021/12/12 00:45:29;;;;;;;17.02;5.00;;;;;;;24.04;46.43;100074.28;7305550;19;128930;-35
2021/12/12 00:47:55;;;;;;;19.77;5.35;;;;;;;23.96;47.43;100074.97;7307368;19;159448;-35
2021/12/12 00:50:33;;;;;;;17.90;5.23;;;;;;;23.85;47.32;100083.00;7306912;19;128920;-33
2021/12/12 00:53:00;;;;;;;16.77;4.88;;;;;;;23.81;47.63;100080.81;7306937;19;130094;-38
2021/12/12 00:55:26;;;;;;;13.80;4.70;;;;;;;23.70;47.46;100073.91;7305193;19;129471;-34
2021/12/12 00:57:53;;;;;;;24.70;5.82;;;;;;;23.60;48.31;100075.72;7315560;19;129733;-33
2021/12/12 01:00:24;;;;;;;16.05;4.63;;;;;;;23.58;47.83;100079.47;7313684;19;130436;-37
2021/12/12 01:02:50;;;;;;;13.80;4.25;;;;;;;23.45;48.29;100061.41;7314855;19;129757;-36
2021/12/12 01:05:15;;;;;;;20.70;4.68;;;;;;;23.46;48.16;100083.22;7311903;19;129573;-36
2021/12/12 01:07:44;;;;;;;13.73;4.10;;;;;;;23.41;48.70;100083.66;7314615;19;129795;-41
2021/12/12 01:10:22;;;;;;;14.73;4.28;;;;;;;23.42;48.95;100082.66;7315387;19;129339;-35
2021/12/12 01:12:48;;;;;;;15.43;4.47;;;;;;;23.39;49.08;100088.19;7314479;19;129578;-42
2021/12/12 01:15:34;;;;;;;21.30;5.50;;;;;;;23.45;48.96;100082.41;7310022;19;129308;-36
2021/12/12 01:18:03;;;;;;;18.67;5.30;;;;;;;23.54;48.55;100088.59;7312799;19;129202;-34
2021/12/12 01:20:37;;;;;;;18.95;4.40;;;;;;;23.61;48.51;100093.16;7313021;19;129697;-39
2021/12/12 01:23:12;;;;;;;14.30;4.40;;;;;;;23.73;48.01;100101.69;7312791;19;129467;-31
2021/12/12 01:25:44;;;;;;;14.30;4.47;;;;;;;23.76;47.81;100104.88;7310010;19;129764;-35
2021/12/12 01:28:12;;;;;;;19.80;4.82;;;;;;;23.89;47.85;100113.28;7313498;19;129384;-39
2021/12/12 01:30:38;;;;;;;18.90;5.05;;;;;;;23.93;47.25;100117.25;7313015;19;130073;-36
2021/12/12 01:33:03;;;;;;;22.77;5.82;;;;;;;24.02;47.11;100124.34;7311802;19;128971;-36
2021/12/12 01:35:29;;;;;;;22.75;5.90;;;;;;;24.08;46.74;100118.50;7310162;19;129130;-33
2021/12/12 01:40:48;;;;;;;17.48;4.75;;;;;;;24.19;46.38;100107.00;7311687;19;129357;-32
2021/12/12 01:43:24;;;;;;;24.20;5.82;;;;;;;24.33;46.06;100128.38;7311199;19;130230;-36
2021/12/12 01:46:00;;;;;;;22.00;5.28;;;;;;;24.35;46.31;100139.56;7313147;19;129340;-40
2021/12/12 01:48:47;;;;;;;17.17;4.63;;;;;;;24.32;46.43;100134.63;7311826;19;130166;-39
2021/12/12 01:51:14;;;;;;;25.15;5.40;;;;;;;24.29;46.18;100140.16;7310459;19;129217;-40
2021/12/12 01:53:47;;;;;;;18.00;4.75;;;;;;;24.17;47.15;100153.59;7312520;19;129253;-37
2021/12/12 01:56:21;;;;;;;15.60;4.30;;;;;;;24.07;47.42;100145.75;7312621;19;129793;-33
2021/12/12 01:58:51;;;;;;;18.13;4.45;;;;;;;24.02;47.09;100147.97;7313510;19;129217;-32
2021/12/12 02:01:30;;;;;;;15.13;4.07;;;;;;;23.94;47.47;100142.56;7312244;19;130624;-39
2021/12/12 02:04:06;;;;;;;35.08;7.60;;;;;;;23.73;47.89;100120.91;7310275;19;130049;-36
2021/12/12 02:06:33;;;;;;;9.80;3.72;;;;;;;23.75;48.11;100126.84;7313303;19;129992;-38
2021/12/12 02:08:59;;;;;;;17.20;4.72;;;;;;;23.57;48.35;100118.00;7310180;19;131201;-38
2021/12/12 02:11:30;;;;;;;8.02;3.15;;;;;;;23.63;48.63;100135.00;7311765;19;129682;-37
2021/12/12 02:13:59;;;;;;;27.45;6.57;;;;;;;23.53;48.87;100140.28;7310581;19;128990;-36
2021/12/12 02:16:27;;;;;;;14.90;4.13;;;;;;;23.47;48.55;100132.94;7313222;19;130152;-36
2021/12/12 02:18:56;;;;;;;25.60;5.65;;;;;;;23.49;48.68;100133.63;7311210;19;129867;-36
2021/12/12 02:21:35;;;;;;;14.20;4.45;;;;;;;23.47;49.09;100130.31;7308654;19;131241;-38
2021/12/12 02:24:37;;;;;;;18.67;5.05;;;;;;;23.47;48.32;100125.06;7310138;19;129427;-38
2021/12/12 02:35:37;;;;;;;19.13;4.75;;;;;;;23.79;47.65;100120.34;7308960;19;129876;-36
2021/12/12 02:38:04;;;;;;;25.88;5.97;;;;;;;23.83;48.02;100121.69;7309746;19;130072;-37
2021/12/12 02:40:31;;;;;;;;;;;;;;;23.87;47.94;100123.09;7311874;19;130162;-37
2021/12/12 02:42:57;;;;;;;23.98;4.93;;;;;;;23.97;47.44;100129.16;7310035;19;129452;-37
2021/12/12 02:45:24;;;;;;;10.30;3.88;;;;;;;24.01;47.62;100114.81;7308054;19;129174;-36
2021/12/12 02:47:59;;;;;;;;;;;;;;;24.08;47.21;100113.25;7311394;19;129922;-36
2021/12/12 02:50:32;;;;;;;11.30;3.85;;;;;;;24.13;46.91;100103.13;7311236;19;130183;-37
2021/12/12 02:53:03;;;;;;;22.63;5.10;;;;;;;24.32;46.24;100116.22;7311016;19;131200;-38
2021/12/12 02:55:36;;;;;;;14.45;3.80;;;;;;;24.22;46.30;100091.78;7309106;19;129678;-36
2021/12/12 02:58:06;;;;;;;23.00;5.38;;;;;;;24.23;46.62;100093.41;7311110;19;130087;-35
2021/12/12 03:00:35;;;;;;;14.45;3.92;;;;;;;24.17;46.59;100096.63;7308911;19;131045;-35
2021/12/12 03:03:01;;;;;;;26.70;5.63;;;;;;;24.14;46.64;100099.56;7309618;19;133037;-39
2021/12/12 03:05:33;;;;;;;22.80;5.15;;;;;;;24.06;47.38;100112.59;7307731;19;130291;-38
2021/12/12 03:07:58;;;;;;;19.08;4.85;;;;;;;24.01;47.55;100114.81;7310692;19;129072;-35
2021/12/12 03:10:29;;;;;;;15.43;3.63;;;;;;;23.91;47.34;100129.72;7309895;19;130556;-34
2021/12/12 03:12:56;;;;;;;25.90;5.60;;;;;;;23.85;47.58;100135.53;7307327;19;130036;-36
2021/12/12 03:15:25;;;;;;;17.65;4.43;;;;;;;23.79;48.10;100135.25;7307392;19;129610;-40
2021/12/12 03:17:53;;;;;;;21.33;4.80;;;;;;;23.67;48.49;100147.72;7310219;19;129039;-38
2021/12/12 03:20:24;;;;;;;12.50;3.22;;;;;;;23.59;48.29;100147.59;7308428;19;132326;-38
2021/12/12 03:22:52;;;;;;;17.50;4.22;;;;;;;23.57;48.79;100141.63;7310797;19;130695;-37
2021/12/12 03:25:18;;;;;;;21.90;4.90;;;;;;;23.53;48.81;100145.53;7306567;19;130787;-38
2021/12/12 03:27:43;;;;;;;27.00;5.23;;;;;;;23.50;48.63;100145.81;7310095;19;129738;-38
2021/12/12 03:30:09;;;;;;;26.33;5.30;;;;;;;23.47;48.92;100146.06;7308903;19;131824;-37
2021/12/12 03:32:34;;;;;;;16.17;3.88;;;;;;;23.44;48.41;100135.84;7309039;19;131463;-39
2021/12/12 03:35:01;;;;;;;21.83;5.10;;;;;;;23.49;48.50;100143.28;7305951;19;129879;-37
2021/12/12 03:37:29;;;;;;;19.27;4.13;;;;;;;23.52;48.32;100146.47;7310357;19;129577;-36
2021/12/12 03:39:58;;;;;;;29.70;6.22;;;;;;;23.58;49.03;100145.94;7308602;19;131551;-37
2021/12/12 03:42:26;;;;;;;16.77;4.15;;;;;;;23.65;48.64;100149.66;7309293;19;130532;-37
2021/12/12 03:44:52;;;;;;;26.35;5.72;;;;;;;23.77;47.98;100155.56;7305704;19;129972;-38
2021/12/12 03:47:34;;;;;;;19.38;4.50;;;;;;;23.79;48.32;100151.84;7309410;19;130743;-37
2021/12/12 03:50:04;;;;;;;20.45;4.80;;;;;;;23.88;48.25;100156.25;7307914;19;129525;-37
2021/12/12 03:52:29;;;;;;;9.82;3.33;;;;;;;24.01;47.92;100164.72;7307804;19;133336;-37
2021/12/12 03:54:59;;;;;;;20.98;4.95;;;;;;;24.26;47.21;100165.91;7304147;19;155979;-38
2021/12/12 03:57:26;;;;;;;19.55;4.55;;;;;;;24.57;46.21;100164.66;7310047;19;130183;-38
2021/12/12 03:59:51;;;;;;;16.65;3.67;;;;;;;24.86;45.53;100156.69;7309826;19;130048;-35
2021/12/12 04:02:17;;;;;;;13.70;4.07;;;;;;;25.30;44.34;100154.00;7308254;19;137775;-36
2021/12/12 04:04:45;;;;;;;25.60;5.10;;;;;;;25.64;43.79;100162.09;7304546;19;129236;-36
2021/12/12 04:07:20;;;;;;;13.90;3.35;;;;;;;26.01;42.97;100152.19;7307440;19;129095;-35
2021/12/12 04:09:46;;;;;;;18.92;3.85;;;;;;;26.42;41.85;100156.72;7310488;19;129225;-37
2021/12/12 04:12:13;;;;;;;12.43;3.00;;;;;;;26.71;41.69;100170.41;7310702;19;128972;-36
2021/12/12 04:14:40;;;;;;;22.17;4.07;;;;;;;26.88;40.89;100173.94;7307844;19;129253;-36
2021/12/12 04:17:12;;;;;;;28.13;5.03;;;;;;;26.97;40.84;100170.34;7307901;19;129462;-36
2021/12/12 04:19:38;;;;;;;18.38;4.25;;;;;;;27.00;41.08;100172.66;7307819;19;130694;-37
2021/12/12 04:22:04;;;;;;;23.38;4.78;;;;;;;26.98;41.00;100173.78;7306964;19;131588;-36
2021/12/12 04:24:33;;;;;;;16.07;3.67;;;;;;;26.80;40.68;100180.00;7305838;19;129300;-38
2021/12/12 04:26:59;;;;;;;20.67;4.53;;;;;;;26.58;41.16;100169.16;7307318;19;129045;-39
2021/12/12 04:29:32;;;;;;;17.42;3.85;;;;;;;26.30;42.23;100165.88;7307909;19;131155;-38
2021/12/12 04:32:05;;;;;;;31.38;5.85;;;;;;;26.09;42.64;100175.97;7311398;19;130244;-37
2021/12/12 04:34:33;;;;;;;15.88;3.72;;;;;;;25.83;43.26;100172.47;7312330;19;130375;-36
2021/12/12 04:37:04;;;;;;;19.23;4.28;;;;;;;25.62;43.82;100174.56;7315080;19;130393;-37
2021/12/12 04:39:34;;;;;;;20.52;4.25;;;;;;;25.38;44.68;100167.31;7314362;19;130764;-38
2021/12/12 04:42:07;;;;;;;21.30;4.38;;;;;;;25.07;44.82;100150.16;7311406;19;130742;-37
2021/12/12 04:44:36;;;;;;;20.63;4.32;;;;;;;25.00;45.10;100156.16;7311000;19;130522;-38
2021/12/12 04:50:03;;;;;;;27.23;5.22;;;;;;;24.53;45.85;100151.97;7314402;19;129856;-38
2021/12/12 04:52:40;;;;;;;12.98;3.60;;;;;;;24.48;46.16;100166.38;7312129;19;153542;-37
2021/12/12 04:55:23;;;;;;;23.73;5.03;;;;;;;24.34;46.36;100179.97;7310378;19;131451;-38
2021/12/12 04:57:58;;;;;;;20.25;3.97;;;;;;;24.22;47.55;100178.50;7313674;19;129574;-38
2021/12/12 05:00:31;;;;;;;21.95;4.38;;;;;;;24.09;47.27;100174.50;7312021;19;130198;-36
2021/12/12 05:03:22;;;;;;;24.17;5.05;;;;;;;24.00;48.03;100189.31;7311541;19;130971;-36
2021/12/12 05:05:55;;;;;;;25.13;4.43;;;;;;;23.90;47.80;100196.34;7313285;19;130089;-38
2021/12/12 05:08:33;;;;;;;12.68;3.13;;;;;;;23.84;48.31;100202.16;7314550;19;130359;-39
2021/12/12 05:11:05;;;;;;;18.40;4.10;;;;;;;23.78;48.20;100191.38;7313898;19;130681;-38
2021/12/12 05:13:42;;;;;;;29.13;5.50;;;;;;;23.73;48.77;100207.56;7310947;19;129690;-37
2021/12/12 05:16:16;;;;;;;15.52;3.28;;;;;;;23.65;49.14;100202.16;7314981;19;130791;-39
2021/12/12 05:18:49;;;;;;;21.08;4.03;;;;;;;23.66;49.03;100202.97;7312489;19;129714;-37
2021/12/12 05:21:17;;;;;;;27.42;5.05;;;;;;;23.56;48.69;100207.41;7311387;19;130484;-35
2021/12/12 05:23:49;;;;;;;39.13;6.68;;;;;;;23.44;49.02;100192.75;7309827;19;130457;-34
2021/12/12 05:26:22;;;;;;;15.52;3.63;;;;;;;23.53;49.94;100213.78;7309623;19;129964;-35
2021/12/12 05:29:03;;;;;;;22.23;4.38;;;;;;;23.44;50.10;100213.72;7313501;19;131156;-34
2021/12/12 05:31:30;;;;;;;15.68;3.47;;;;;;;23.43;49.65;100218.19;7313043;19;129688;-38
2021/12/12 05:33:56;;;;;;;;;;;;;;;23.39;50.31;100216.78;7311608;19;130420;-38
2021/12/12 05:36:23;;;;;;;19.35;3.88;;;;;;;23.37;49.32;100218.69;7313524;19;129543;-35
2021/12/12 05:38:48;;;;;;;16.17;3.78;;;;;;;23.31;49.73;100219.25;7312709;19;129134;-35
2021/12/12 05:41:18;;;;;;;20.38;3.97;;;;;;;23.26;49.57;100221.41;7311367;19;130857;-39
2021/12/12 05:43:45;;;;;;;39.97;7.22;;;;;;;23.21;49.78;100218.38;7308518;19;130650;-36
2021/12/12 05:46:15;;;;;;;22.83;4.47;;;;;;;23.33;49.20;100224.38;7311638;19;129642;-38
2021/12/12 05:48:42;;;;;;;18.25;3.67;;;;;;;23.41;49.53;100220.09;7311646;19;129387;-37
2021/12/12 05:51:08;;;;;;;28.30;5.28;;;;;;;23.47;49.62;100222.16;7312081;19;130945;-37
2021/12/12 05:53:33;;;;;;;19.80;3.75;;;;;;;23.56;49.06;100210.03;7309709;19;152546;-36
2021/12/12 05:55:58;;;;;;;26.25;5.35;;;;;;;23.77;48.28;100221.22;7313591;19;130222;-38
2021/12/12 05:58:24;;;;;;;18.83;3.75;;;;;;;23.89;48.06;100220.94;7314992;19;130393;-35
2021/12/12 06:01:00;;;;;;;24.02;4.22;;;;;;;24.08;47.32;100220.94;7312005;19;131011;-37
2021/12/12 06:03:29;;;;;;;21.23;4.43;;;;;;;24.22;46.86;100214.44;7312129;19;130419;-34
2021/12/12 06:05:57;;;;;;;32.88;5.45;;;;;;;24.34;47.25;100211.53;7312151;19;131194;-38
2021/12/12 06:08:24;;;;;;;25.88;4.47;;;;;;;24.46;46.71;100209.56;7313495;19;130358;-37
2021/12/12 06:10:51;;;;;;;23.30;3.88;;;;;;;24.60;46.03;100206.44;7315190;19;129547;-36
2021/12/12 06:13:18;;;;;;;14.48;3.15;;;;;;;24.73;45.75;100216.66;7315019;19;129608;-37
2021/12/12 06:15:48;;;;;;;11.35;2.75;;;;;;;24.81;45.90;100228.09;7312093;19;128879;-38
2021/12/12 06:18:14;;;;;;;20.67;4.20;;;;;;;24.95;45.20;100213.66;7313332;19;129196;-38
2021/12/12 06:20:41;;;;;;;13.90;2.97;;;;;;;25.00;45.71;100225.41;7312754;19;130180;-36
2021/12/12 06:23:08;;;;;;;17.65;3.42;;;;;;;24.98;45.28;100216.81;7313882;19;129769;-36
2021/12/12 06:25:34;;;;;;;16.33;3.60;;;;;;;25.11;45.12;100224.34;7312058;19;129314;-35
2021/12/12 06:27:59;;;;;;;22.20;4.13;;;;;;;25.21;44.85;100227.75;7315887;19;129051;-37
2021/12/12 06:30:25;;;;;;;10.45;2.67;;;;;;;25.24;44.78;100232.72;7313906;19;151623;-40
2021/12/12 06:32:52;;;;;;;22.73;4.80;;;;;;;25.17;45.03;100226.41;7312836;19;129631;-35
2021/12/12 06:35:18;;;;;;;24.05;4.50;;;;;;;25.25;44.93;100240.50;7309833;19;129355;-37
2021/12/12 06:37:44;;;;;;;27.90;4.82;;;;;;;25.25;45.12;100240.50;7311351;19;130355;-37
2021/12/12 06:40:14;;;;;;;18.93;3.67;;;;;;;25.24;44.75;100236.19;7311058;19;129552;-33
2021/12/12 06:42:40;;;;;;;35.88;6.47;;;;;;;25.21;45.19;100238.28;7304906;19;131181;-37
2021/12/12 06:45:09;;;;;;;22.37;4.50;;;;;;;25.24;44.80;100244.09;7305300;19;129256;-37
2021/12/12 06:47:35;;;;;;;13.07;3.40;;;;;;;25.19;44.67;100248.13;7312050;19;129030;-37
2021/12/12 06:50:01;;;;;;;25.73;5.17;;;;;;;25.14;44.94;100258.31;7310513;19;129025;-35
2021/12/12 06:52:26;;;;;;;17.77;4.07;;;;;;;25.07;45.57;100257.22;7309156;19;130588;-37
2021/12/12 06:54:53;;;;;;;42.70;6.88;;;;;;;25.00;45.03;100253.50;7305877;19;130300;-36
2021/12/12 06:57:19;;;;;;;21.13;4.22;;;;;;;24.95;45.92;100255.75;7311335;19;129525;-37
2021/12/12 06:59:47;;;;;;;19.15;3.55;;;;;;;24.85;45.99;100252.31;7310460;19;129734;-37
2021/12/12 07:02:13;;;;;;;17.05;3.70;;;;;;;24.81;45.52;100245.72;7305422;19;133658;-36
2021/12/12 07:04:40;;;;;;;13.80;3.03;;;;;;;24.70;45.89;100257.22;7307929;19;129426;-34
2021/12/12 07:07:07;;;;;;;20.10;3.90;;;;;;;24.69;46.51;100249.50;7312287;19;129620;-38
2021/12/12 07:09:35;;;;;;;19.23;3.58;;;;;;;24.56;46.20;100254.19;7308806;19;132209;-36
2021/12/12 07:12:04;;;;;;;27.45;5.15;;;;;;;24.51;46.66;100251.97;7310647;19;130547;-37
2021/12/12 07:14:30;;;;;;;17.05;3.72;;;;;;;24.41;47.09;100254.63;7310401;19;131844;-38
2021/12/12 07:16:56;;;;;;;15.02;3.30;;;;;;;24.40;46.87;100260.03;7312803;19;130556;-35
2021/12/12 07:19:21;;;;;;;10.07;2.58;;;;;;;24.28;47.19;100259.38;7311120;19;130016;-36
2021/12/12 07:21:47;;;;;;;51.13;7.68;;;;;;;24.22;46.97;100280.13;7306004;19;129769;-38
2021/12/12 07:24:17;;;;;;;25.33;4.82;;;;;;;24.14;47.68;100280.84;7305131;19;129123;-38
2021/12/12 07:26:43;;;;;;;13.05;2.67;;;;;;;24.03;47.63;100275.69;7313128;19;129123;-38
2021/12/12 07:29:09;;;;;;;25.92;4.85;;;;;;;23.96;47.97;100277.22;7312670;19;129871;-37
2021/12/12 07:31:38;;;;;;;16.35;3.47;;;;;;;23.93;48.20;100279.28;7312347;19;129758;-37
2021/12/12 07:34:08;;;;;;;24.23;4.90;;;;;;;23.87;48.40;100283.28;7308746;19;129902;-37
2021/12/12 07:36:36;;;;;;;14.82;3.08;;;;;;;23.79;48.23;100280.53;7312347;19;129056;-37
2021/12/12 07:39:08;;;;;;;25.10;4.75;;;;;;;23.74;48.83;100274.84;7311652;19;129177;-37
2021/12/12 07:41:35;;;;;;;16.88;4.13;;;;;;;23.72;48.40;100276.78;7310324;19;129605;-37
2021/12/12 07:44:04;;;;;;;28.75;5.25;;;;;;;23.67;48.67;100278.97;7307584;19;129783;-38
2021/12/12 07:46:29;;;;;;;21.30;3.80;;;;;;;23.64;48.83;100274.00;7308344;19;129017;-39
2021/12/12 07:48:55;;;;;;;28.63;4.97;;;;;;;23.68;48.54;100285.91;7307562;19;130104;-37
2021/12/12 07:51:22;;;;;;;19.05;3.45;;;;;;;23.57;48.82;100269.44;7312843;19;129253;-37
2021/12/12 07:53:52;;;;;;;35.80;5.90;;;;;;;23.63;49.39;100277.63;7309974;19;129046;-37
2021/12/12 07:56:19;;;;;;;24.75;4.25;;;;;;;23.62;49.00;100283.81;7310107;19;130218;-39
2021/12/12 07:58:45;;;;;;;22.58;4.07;;;;;;;23.65;49.35;100291.41;7309159;19;130524;-38
2021/12/12 08:01:13;;;;;;;20.13;3.55;;;;;;;23.56;48.80;100273.88;7305589;19;129778;-39
2021/12/12 08:03:39;;;;;;;26.65;4.93;;;;;;;23.67;48.78;100283.41;7308039;19;130615;-35
2021/12/12 08:06:06;;;;;;;16.05;3.72;;;;;;;23.68;49.07;100285.91;7313893;19;131697;-39
2021/12/12 08:08:32;;;;;;;18.20;3.55;;;;;;;23.72;48.21;100289.91;7319272;19;129589;-38
2021/12/12 08:10:59;;;;;;;18.90;3.65;;;;;;;23.74;48.43;100290.59;7319914;19;129776;-38
2021/12/12 08:13:25;;;;;;;16.58;3.38;;;;;;;23.75;48.78;100297.50;7317781;19;129461;-39
2021/12/12 08:15:51;;;;;;;28.70;4.82;;;;;;;23.78;48.36;100294.63;7316636;19;129478;-37
2021/12/12 08:18:18;;;;;;;12.35;2.78;;;;;;;23.80;47.94;100302.38;7318213;19;129280;-35
2021/12/12 08:20:46;;;;;;;20.52;3.97;;;;;;;23.91;47.41;100289.94;7318719;19;130558;-38
2021/12/12 08:23:13;;;;;;;15.88;3.45;;;;;;;23.97;47.10;100296.41;7318603;19;129633;-37
2021/12/12 08:25:39;;;;;;;15.70;3.53;;;;;;;23.96;47.27;100289.50;7315380;19;130380;-38
2021/12/12 08:28:06;;;;;;;17.20;3.63;;;;;;;24.03;47.79;100291.47;7318965;19;130964;-38
2021/12/12 08:30:33;;;;;;;13.02;2.75;;;;;;;24.01;47.37;100276.81;7318289;19;129562;-38
2021/12/12 08:32:58;;;;;;;24.52;4.88;;;;;;;24.16;47.36;100278.88;7317627;19;129085;-37
2021/12/12 08:35:26;;;;;;;20.35;3.60;;;;;;;24.17;46.89;100277.09;7314404;19;129724;-37
2021/12/12 08:37:51;;;;;;;22.38;4.20;;;;;;;24.21;46.94;100284.53;7317375;19;129322;-39
2021/12/12 08:40:20;;;;;;;20.73;3.80;;;;;;;24.25;46.48;100291.19;7317668;19;147286;-37
2021/12/12 08:42:49;;;;;;;16.45;3.65;;;;;;;24.28;46.86;100284.81;7317001;19;130964;-36
2021/12/12 08:45:18;;;;;;;10.05;2.45;;;;;;;24.30;46.69;100288.13;7315808;19;129267;-39
2021/12/12 08:47:46;;;;;;;13.80;2.83;;;;;;;24.33;47.18;100280.81;7317899;19;132803;-39
2021/12/12 08:50:14;;;;;;;19.10;3.65;;;;;;;24.35;47.18;100289.38;7317729;19;130012;-36
2021/12/12 08:52:45;;;;;;;11.32;2.20;;;;;;;24.39;46.94;100282.06;7318729;19;129356;-40
2021/12/12 08:55:19;;;;;;;15.18;2.88;;;;;;;24.39;46.62;100276.78;7314934;19;128965;-36
2021/12/12 08:57:59;;;;;;;13.60;2.75;;;;;;;24.40;46.80;100279.28;7317872;19;130735;-37
2021/12/12 09:00:29;;;;;;;13.27;3.17;;;;;;;24.41;46.80;100273.03;7317841;19;129780;-38
2021/12/12 09:02:55;;;;;;;16.27;3.50;;;;;;;24.41;46.81;100273.03;7317557;19;129907;-38
2021/12/12 09:05:25;;;;;;;16.23;3.15;;;;;;;24.45;46.31;100265.69;7314863;19;129054;-39
2021/12/12 09:07:57;;;;;;;12.85;2.72;;;;;;;24.48;46.65;100269.88;7317970;19;129219;-37
2021/12/12 09:10:30;;;;;;;14.43;2.67;;;;;;;24.46;46.93;100278.69;7314157;19;131728;-37
2021/12/12 09:13:09;;;;;;;13.88;3.42;;;;;;;24.48;46.97;100279.41;7316635;19;129133;-38
2021/12/12 09:15:46;;;;;;;15.60;3.28;;;;;;;24.55;46.09;100263.03;7314016;19;129564;-36
2021/12/12 09:18:18;;;;;;;16.58;3.72;;;;;;;24.39;39.10;100267.09;7313272;19;129688;-39
2021/12/12 09:20:53;;;;;;;18.65;4.20;;;;;;;24.31;39.93;100274.03;7315807;19;130460;-36
2021/12/12 09:23:29;;;;;;;11.88;3.47;;;;;;;24.37;40.74;100274.31;7314789;19;129110;-38
2021/12/12 09:26:06;;;;;;;23.60;4.63;;;;;;;24.38;42.28;100264.59;7315243;19;129828;-38
2021/12/12 09:28:40;;;;;;;;;;;;;;;24.42;43.17;100269.47;7316476;19;129656;-35
2021/12/12 09:31:18;;;;;;;17.77;4.10;;;;;;;24.42;43.38;100258.94;7316029;19;130701;-37
2021/12/12 09:33:52;;;;;;;29.92;6.40;;;;;;;24.44;43.35;100267.50;7314800;19;130232;-37
2021/12/12 09:36:31;;;;;;;14.60;3.03;;;;;;;24.43;44.00;100249.25;7317317;19;129221;-38
2021/12/12 09:39:11;;;;;;;29.05;5.13;;;;;;;24.51;43.95;100266.94;7316533;19;129525;-38
2021/12/12 09:41:56;;;;;;;12.20;2.90;;;;;;;24.49;43.89;100246.88;7314665;19;130479;-39
2021/12/12 09:44:53;;;;;;;35.58;8.02;;;;;;;24.52;42.55;100255.44;7310934;19;154643;-39
2021/12/12 09:47:31;;;;;;;23.33;4.77;;;;;;;24.55;43.92;100255.16;7303044;19;129871;-38
2021/12/12 09:53:10;;;;;;;13.13;3.20;;;;;;;24.53;44.75;100246.59;7316497;19;129313;-37
2021/12/12 09:55:53;;;;;;;14.10;3.58;;;;;;;24.52;44.52;100234.41;7313284;19;129383;-37
2021/12/12 09:58:42;;;;;;;17.65;3.40;;;;;;;24.54;44.18;100229.84;7315971;19;129251;-36
2021/12/12 10:01:18;;;;;;;17.67;3.80;;;;;;;24.53;44.51;100230.84;7315699;19;130687;-39
2021/12/12 10:04:14;;;;;;;23.60;5.07;;;;;;;24.53;44.70;100220.31;7313964;19;129667;-37
2021/12/12 10:07:06;;;;;;;18.75;3.58;;;;;;;24.54;45.18;100211.44;7316218;19;128995;-37
2021/12/12 10:09:48;;;;;;;17.13;3.58;;;;;;;24.45;44.64;100197.34;7315792;19;129056;-36
2021/12/12 10:12:16;;;;;;;16.42;3.15;;;;;;;24.55;44.86;100206.03;7316396;19;132342;-38
2021/12/12 10:14:51;;;;;;;15.43;3.85;;;;;;;24.51;42.88;100201.22;7315054;19;130801;-37
2021/12/12 10:17:27;;;;;;;16.42;3.92;;;;;;;24.46;41.77;100202.47;7316456;19;129142;-38
2021/12/12 10:20:30;;;;;;;25.00;5.13;;;;;;;24.50;42.04;100195.13;7313213;19;155163;-38
2021/12/12 10:23:14;;;;;;;23.38;4.88;;;;;;;24.49;41.79;100185.59;7307394;19;130559;-38
2021/12/12 10:25:50;;;;;;;21.10;4.15;;;;;;;24.46;41.39;100170.94;7312082;19;140396;-37
2021/12/12 10:28:51;;;;;;;17.73;4.55;;;;;;;24.50;42.39;100179.34;7314919;19;128897;-38
2021/12/12 10:31:39;;;;;;;16.30;3.72;;;;;;;24.53;42.63;100180.88;7310444;19;130462;-37
2021/12/12 10:34:09;;;;;;;23.05;4.47;;;;;;;24.53;42.55;100183.50;7311280;19;131084;-38
2021/12/12 10:36:45;;;;;;;21.00;4.55;;;;;;;24.53;42.88;100180.88;7312357;19;130390;-37
2021/12/12 10:39:18;;;;;;;12.00;3.50;;;;;;;24.54;42.43;100180.75;7314917;19;130997;-37
2021/12/12 10:41:49;;;;;;;17.48;4.50;;;;;;;24.56;42.43;100172.69;7312676;19;129803;-39
2021/12/12 10:44:25;;;;;;;21.17;4.68;;;;;;;24.55;42.92;100174.50;7313326;19;131046;-38
2021/12/12 10:47:13;;;;;;;28.63;5.15;;;;;;;24.55;43.20;100165.78;7314200;19;132354;-37
2021/12/12 10:49:52;;;;;;;13.90;3.42;;;;;;;24.51;43.00;100174.94;7314637;19;129116;-37
2021/12/12 10:52:38;;;;;;;21.23;4.38;;;;;;;24.54;43.37;100174.63;7313416;19;129363;-37
2021/12/12 10:55:12;;;;;;;15.88;4.10;;;;;;;24.53;43.53;100167.75;7311258;19;130269;-38
2021/12/12 10:57:39;;;;;;;14.82;3.78;;;;;;;24.46;43.26;100163.03;7313979;19;129982;-36
2021/12/12 11:00:11;;;;;;;17.67;3.85;;;;;;;24.54;43.00;100172.84;7313217;19;129537;-37
2021/12/12 11:02:49;;;;;;;17.13;3.90;;;;;;;24.50;42.81;100168.84;7311959;19;128866;-35
2021/12/12 11:05:25;;;;;;;13.55;3.22;;;;;;;24.55;43.05;100169.25;7309931;19;129781;-37
2021/12/12 11:07:58;;;;;;;21.42;4.40;;;;;;;24.53;43.41;100173.00;7309611;19;129106;-35
2021/12/12 11:10:29;;;;;;;21.48;4.93;;;;;;;24.52;43.39;100174.78;7313338;19;129471;-38
2021/12/12 11:13:04;;;;;;;29.38;5.65;;;;;;;24.54;43.63;100164.13;7312094;19;129112;-36
2021/12/12 11:15:54;;;;;;;18.08;4.07;;;;;;;24.53;43.13;100165.91;7310500;19;130951;-36
2021/12/12 11:18:28;;;;;;;16.88;3.58;;;;;;;24.50;43.79;100168.84;7315279;19;130339;-36
2021/12/12 11:21:08;;;;;;;20.13;4.35;;;;;;;24.52;43.87;100171.31;7312876;19;130399;-38
2021/12/12 11:23:41;;;;;;;17.88;3.83;;;;;;;24.52;43.38;100181.84;7312701;19;130732;-37
2021/12/12 11:26:31;;;;;;;16.95;3.83;;;;;;;24.51;43.01;100188.09;7313746;19;131331;-34
2021/12/12 11:29:01;;;;;;;26.05;5.05;;;;;;;24.49;43.86;100180.34;7310913;19;132132;-38
2021/12/12 11:31:55;;;;;;;19.75;4.50;;;;;;;24.51;43.59;100188.88;7312552;19;129572;-37
2021/12/12 11:34:23;;;;;;;8.38;2.67;;;;;;;24.54;43.14;100186.00;7312055;19;129100;-37
2021/12/12 11:37:13;;;;;;;20.38;4.22;;;;;;;24.52;43.80;100189.72;7313100;19;130184;-37
2021/12/12 11:39:51;;;;;;;15.25;3.40;;;;;;;24.43;43.20;100179.09;7308933;19;133180;-35
2021/12/12 11:42:23;;;;;;;23.50;4.75;;;;;;;24.52;43.14;100187.94;7308872;19;131152;-38
2021/12/12 11:45:01;;;;;;;22.63;4.50;;;;;;;24.52;43.34;100187.09;7308510;19;131157;-38